Lehmann Sound — V2EM3 — position and weather

sailwx.info

Track history (hours):
 
Tides and Currents Weather Stations Pressure Air Temp Water Temp Dewpoint Dewpoint Depression Visibility Wind Speed Wind Dir Waves Ship Positions

Lehmann Sound

Last reported at 2014-Sep-16 04:27 UTC. Time now 2014-Sep-17 03:31 UTC.
Position N 53°41' W 006°05'.

Length 90 m; draft 5.4 m.

Type: Cargo ship. MMSI: 305476000.

Date/timePositionNaut miles runAvg speedWind from/ knotsBaromVisibWave heightAir tempDewpointWater temp
2014-Sep-16 04:27N 53°41' W 006°05'7 0.2
2014-Sep-14 14:20N 53°44' W 006°16'87 9.4
2014-Sep-14 05:05N 52°20' W 005°41'4 8.2
2014-Sep-14 04:33N 52°15' W 005°42'25110.5
2014-Sep-13 04:33N 48°05' W 005°29'1312.4
2014-Sep-13 03:30N 47°53' W 005°20'1111.8
2014-Sep-13 02:33N 47°43' W 005°11'1110.9
2014-Sep-13 01:33N 47°34' W 005°05'1211.7
2014-Sep-13 00:33N 47°23' W 004°56'  
2014-Sep-10 07:28N 43°22' W 001°56'1 1.0
2014-Sep-10 06:33N 43°23' W 001°56'1 0.9
2014-Sep-10 05:34N 43°24' W 001°56'2 1.8
2014-Sep-10 04:27N 43°22' W 001°57'8 8.7
2014-Sep-10 03:34N 43°28' W 002°02'9 8.3
2014-Sep-10 02:30N 43°36' W 002°08'8 8.7
2014-Sep-10 01:34N 43°44' W 002°13'9 8.7
2014-Sep-10 00:34N 43°51' W 002°19'9 8.5
2014-Sep-09 23:33N 43°59' W 002°24'9 8.6
2014-Sep-09 22:33N 44°06' W 002°30'9 8.8
2014-Sep-09 21:33N 44°14' W 002°36'9 9.0
2014-Sep-09 20:33N 44°22' W 002°42'10 9.1
2014-Sep-09 19:25N 44°31' W 002°48'8 8.9
2014-Sep-09 18:33N 44°38' W 002°54'9 9.1
2014-Sep-09 17:34N 44°46' W 002°60'9 9.1
2014-Sep-09 16:33N 44°54' W 003°06'9 8.9
2014-Sep-09 15:33N 45°02' W 003°12'11 9.1
2014-Sep-09 14:22N 45°11' W 003°19'291 7.1
2014-Sep-07 21:25N 50°01' W 002°43'26 7.9
2014-Sep-07 18:06N 50°08' W 002°04'9910.2
2014-Sep-07 08:22N 50°35' E 000°26'8 8.3
2014-Sep-07 07:24N 50°38' E 000°38'7 8.7
2014-Sep-07 06:33N 50°43' E 000°46'10 9.9
2014-Sep-07 05:33N 50°49' E 000°58'1211.6
2014-Sep-07 04:31N 50°57' E 001°13'1312.4
2014-Sep-07 03:29N 51°05' E 001°29'1011.2
2014-Sep-07 02:33N 51°12' E 001°41'10 9.8
2014-Sep-07 01:33N 51°19' E 001°51'9 9.1
2014-Sep-07 00:34N 51°27' E 001°60'1412.1
2014-Sep-06 23:26N 51°37' E 002°14'3 3.6
2014-Sep-06 22:33N 51°39' E 002°17'9 9.0
2014-Sep-06 21:32N 51°46' E 002°27'49 9.9
2014-Sep-06 16:33N 52°03' E 003°43'10 9.8
2014-Sep-06 15:33N 52°01' E 003°59'6 6.2
2014-Sep-06 14:33N 51°58' E 004°07'0 0.0
2014-Sep-06 13:33N 51°58' E 004°07'0 0.0
2014-Sep-06 12:33N 51°58' E 004°07'0 0.0
2014-Sep-06 11:33N 51°58' E 004°07'0 0.0
2014-Sep-06 10:32N 51°58' E 004°07'0 0.0
2014-Sep-06 09:32N 51°58' E 004°07'0 0.0
2014-Sep-06 08:32N 51°58' E 004°07'0 0.0
2014-Sep-06 07:32N 51°58' E 004°07'0 0.0
2014-Sep-06 06:29N 51°58' E 004°07'0 0.0
2014-Sep-06 05:32N 51°58' E 004°07'0 0.0
2014-Sep-06 04:29N 51°58' E 004°07'  
Track history (hours):
 
Tides and Currents Weather Stations Pressure Air Temp Water Temp Dewpoint Dewpoint Depression Visibility Wind Speed Wind Dir Waves Ship Positions

Lehmann Sound

Last reported at 2014-Sep-16 04:27 UTC. Time now 2014-Sep-17 03:31 UTC.
Position N 53°41' W 006°05'.

Length 90 m; draft 5.4 m.

Type: Cargo ship. MMSI: 305476000.

Date/timePositionNaut miles runAvg speedWind from/ knotsBaromVisibWave heightAir tempDewpointWater temp
2014-Sep-16 04:27N 53°41' W 006°05'7 0.2
2014-Sep-14 14:20N 53°44' W 006°16'87 9.4
2014-Sep-14 05:05N 52°20' W 005°41'4 8.2
2014-Sep-14 04:33N 52°15' W 005°42'25110.5
2014-Sep-13 04:33N 48°05' W 005°29'1312.4
2014-Sep-13 03:30N 47°53' W 005°20'1111.8
2014-Sep-13 02:33N 47°43' W 005°11'1110.9
2014-Sep-13 01:33N 47°34' W 005°05'1211.7
2014-Sep-13 00:33N 47°23' W 004°56'  
2014-Sep-10 07:28N 43°22' W 001°56'1 1.0
2014-Sep-10 06:33N 43°23' W 001°56'1 0.9
2014-Sep-10 05:34N 43°24' W 001°56'2 1.8
2014-Sep-10 04:27N 43°22' W 001°57'8 8.7
2014-Sep-10 03:34N 43°28' W 002°02'9 8.3
2014-Sep-10 02:30N 43°36' W 002°08'8 8.7
2014-Sep-10 01:34N 43°44' W 002°13'9 8.7
2014-Sep-10 00:34N 43°51' W 002°19'9 8.5
2014-Sep-09 23:33N 43°59' W 002°24'9 8.6
2014-Sep-09 22:33N 44°06' W 002°30'9 8.8
2014-Sep-09 21:33N 44°14' W 002°36'9 9.0
2014-Sep-09 20:33N 44°22' W 002°42'10 9.1
2014-Sep-09 19:25N 44°31' W 002°48'8 8.9
2014-Sep-09 18:33N 44°38' W 002°54'9 9.1
2014-Sep-09 17:34N 44°46' W 002°60'9 9.1
2014-Sep-09 16:33N 44°54' W 003°06'9 8.9
2014-Sep-09 15:33N 45°02' W 003°12'11 9.1
2014-Sep-09 14:22N 45°11' W 003°19'291 7.1
2014-Sep-07 21:25N 50°01' W 002°43'26 7.9
2014-Sep-07 18:06N 50°08' W 002°04'9910.2
2014-Sep-07 08:22N 50°35' E 000°26'8 8.3
2014-Sep-07 07:24N 50°38' E 000°38'7 8.7
2014-Sep-07 06:33N 50°43' E 000°46'10 9.9
2014-Sep-07 05:33N 50°49' E 000°58'1211.6
2014-Sep-07 04:31N 50°57' E 001°13'1312.4
2014-Sep-07 03:29N 51°05' E 001°29'1011.2
2014-Sep-07 02:33N 51°12' E 001°41'10 9.8
2014-Sep-07 01:33N 51°19' E 001°51'9 9.1
2014-Sep-07 00:34N 51°27' E 001°60'1412.1
2014-Sep-06 23:26N 51°37' E 002°14'3 3.6
2014-Sep-06 22:33N 51°39' E 002°17'9 9.0
2014-Sep-06 21:32N 51°46' E 002°27'49 9.9
2014-Sep-06 16:33N 52°03' E 003°43'10 9.8
2014-Sep-06 15:33N 52°01' E 003°59'6 6.2
2014-Sep-06 14:33N 51°58' E 004°07'0 0.0
2014-Sep-06 13:33N 51°58' E 004°07'0 0.0
2014-Sep-06 12:33N 51°58' E 004°07'0 0.0
2014-Sep-06 11:33N 51°58' E 004°07'0 0.0
2014-Sep-06 10:32N 51°58' E 004°07'0 0.0
2014-Sep-06 09:32N 51°58' E 004°07'0 0.0
2014-Sep-06 08:32N 51°58' E 004°07'0 0.0
2014-Sep-06 07:32N 51°58' E 004°07'0 0.0
2014-Sep-06 06:29N 51°58' E 004°07'0 0.0
2014-Sep-06 05:32N 51°58' E 004°07'0 0.0
2014-Sep-06 04:29N 51°58' E 004°07'  

Dump ship's entire track history